createdAt,value
2022-07-30T00:02:05.640Z,97.20
2022-07-30T00:04:32.614Z,99.70
2022-07-30T00:07:00.306Z,100.60
2022-07-30T00:09:27.216Z,102.07
2022-07-30T00:11:53.903Z,97.97
2022-07-30T00:14:20.753Z,101.80
2022-07-30T00:16:47.504Z,102.30
2022-07-30T00:19:14.891Z,102.40
2022-07-30T00:21:42.232Z,100.10
2022-07-30T00:24:10.239Z,100.37
2022-07-30T00:26:37.234Z,97.40
2022-07-30T00:29:05.043Z,99.90
2022-07-30T00:31:32.194Z,96.90
2022-07-30T00:33:58.954Z,101.93
2022-07-30T00:36:25.954Z,98.97
2022-07-30T00:38:52.656Z,105.93
2022-07-30T00:41:19.311Z,104.83
2022-07-30T00:43:46.039Z,99.60
2022-07-30T00:46:14.754Z,100.47
2022-07-30T00:48:42.585Z,101.30
2022-07-30T00:51:09.666Z,101.33
2022-07-30T00:53:37.012Z,107.90
2022-07-30T00:56:04.510Z,105.77
2022-07-30T00:58:31.424Z,99.27
2022-07-30T01:00:58.204Z,101.90
2022-07-30T01:03:24.982Z,101.23
2022-07-30T01:05:51.738Z,100.77
2022-07-30T01:08:18.470Z,99.50
2022-07-30T01:10:45.158Z,101.27
2022-07-30T01:13:12.747Z,100.07
2022-07-30T01:15:39.510Z,98.70
2022-07-30T01:18:10.022Z,101.30
2022-07-30T01:20:38.206Z,101.27
2022-07-30T01:23:14.607Z,98.93
2022-07-30T01:26:01.969Z,100.00
2022-07-30T01:28:35.582Z,99.30
2022-07-30T01:31:04.230Z,103.13
2022-07-30T01:33:32.526Z,103.40
2022-07-30T01:36:00.653Z,104.57
2022-07-30T01:38:31.167Z,101.80
2022-07-30T01:41:03.665Z,100.43
2022-07-30T01:43:32.943Z,102.43
2022-07-30T01:46:02.108Z,97.97
2022-07-30T01:48:29.742Z,103.13
2022-07-30T01:51:00.490Z,103.80
2022-07-30T01:53:31.381Z,100.93
2022-07-30T01:56:00.217Z,105.37
2022-07-30T01:58:31.693Z,102.07
2022-07-30T02:00:59.018Z,101.40
2022-07-30T02:03:27.025Z,105.03
2022-07-30T02:06:17.690Z,101.50
2022-07-30T02:09:10.587Z,104.50
2022-07-30T02:12:03.093Z,101.47
2022-07-30T02:14:49.357Z,102.57
2022-07-30T02:17:22.295Z,103.57
2022-07-30T02:19:57.787Z,103.67
2022-07-30T02:22:28.771Z,101.50
2022-07-30T02:24:58.506Z,103.27
2022-07-30T02:27:28.829Z,101.67
2022-07-30T02:29:59.424Z,101.23
2022-07-30T02:32:30.610Z,104.60
2022-07-30T02:35:00.519Z,102.30
2022-07-30T02:37:41.482Z,104.90
2022-07-30T02:40:14.192Z,102.17
2022-07-30T02:42:42.799Z,103.03
2022-07-30T02:45:11.337Z,103.80
2022-07-30T02:47:39.665Z,102.97
2022-07-30T02:50:08.964Z,102.05
2022-07-30T02:52:37.827Z,107.68
2022-07-30T02:55:06.021Z,102.85
2022-07-30T02:57:33.999Z,100.57
2022-07-30T03:00:02.440Z,95.63
2022-07-30T03:02:31.468Z,98.40
2022-07-30T03:05:00.050Z,96.90
2022-07-30T03:07:28.725Z,97.65
2022-07-30T03:09:56.946Z,98.85
2022-07-30T03:12:24.696Z,98.37
2022-07-30T03:14:51.828Z,98.90
2022-07-30T03:17:20.402Z,98.75
2022-07-30T03:19:49.442Z,99.47
2022-07-30T03:22:18.218Z,104.43
2022-07-30T03:24:47.165Z,102.87
2022-07-30T03:27:16.088Z,100.63
2022-07-30T03:29:45.831Z,107.60
2022-07-30T03:32:13.878Z,108.93
2022-07-30T03:34:42.547Z,107.05
2022-07-30T03:37:11.275Z,105.60
2022-07-30T03:39:38.963Z,107.13
2022-07-30T03:42:07.871Z,106.32
2022-07-30T03:44:35.241Z,104.32
2022-07-30T03:47:05.065Z,105.90
2022-07-30T03:49:32.915Z,105.68
2022-07-30T03:52:01.116Z,105.47
2022-07-30T03:54:28.159Z,107.35
2022-07-30T03:56:55.017Z,106.30
2022-07-30T03:59:21.831Z,103.70
2022-07-30T04:01:48.633Z,107.50
2022-07-30T04:04:15.345Z,106.18
2022-07-30T04:06:43.031Z,106.80
2022-07-30T04:09:11.946Z,105.80
2022-07-30T04:11:41.597Z,105.60
2022-07-30T04:14:09.115Z,107.40
2022-07-30T04:16:54.789Z,103.85
2022-07-30T04:19:44.431Z,108.90
2022-07-30T04:22:12.928Z,107.15
2022-07-30T04:24:40.951Z,108.53
2022-07-30T04:27:07.910Z,102.37
2022-07-30T04:29:34.938Z,101.55
2022-07-30T04:32:01.826Z,100.72
2022-07-30T04:34:28.567Z,101.55
2022-07-30T04:36:55.272Z,101.72
2022-07-30T04:39:21.967Z,106.35
2022-07-30T04:41:50.197Z,104.07
2022-07-30T04:44:20.312Z,104.28
2022-07-30T04:46:47.826Z,101.93
2022-07-30T04:49:17.459Z,105.47
2022-07-30T04:51:45.415Z,102.28
2022-07-30T04:54:15.240Z,101.88
2022-07-30T04:56:53.377Z,103.05
2022-07-30T04:59:24.770Z,105.30
2022-07-30T05:01:52.526Z,101.95
2022-07-30T05:04:22.342Z,106.63
2022-07-30T05:06:49.688Z,103.80
2022-07-30T05:09:17.060Z,103.50
2022-07-30T05:11:51.482Z,104.43
2022-07-30T05:14:18.158Z,105.43
2022-07-30T05:16:44.826Z,108.20
2022-07-30T05:19:11.946Z,105.45
2022-07-30T05:21:38.639Z,108.93
2022-07-30T05:24:05.661Z,109.65
2022-07-30T05:26:32.484Z,105.25
2022-07-30T05:28:59.168Z,107.35
2022-07-30T05:31:26.096Z,108.55
2022-07-30T05:34:00.170Z,111.30
2022-07-30T05:36:29.335Z,110.50
2022-07-30T05:38:55.998Z,109.38
2022-07-30T05:41:32.272Z,108.72
2022-07-30T05:44:00.164Z,110.93
2022-07-30T05:46:27.259Z,106.77
2022-07-30T05:48:54.160Z,106.87
2022-07-30T05:51:22.149Z,106.80
2022-07-30T05:53:49.239Z,106.20
2022-07-30T05:56:16.022Z,105.33
2022-07-30T05:58:43.160Z,107.07
2022-07-30T06:01:09.897Z,117.00
2022-07-30T06:03:36.647Z,105.80
2022-07-30T06:06:04.957Z,108.77
2022-07-30T06:08:31.947Z,103.10
2022-07-30T06:10:58.717Z,103.07
2022-07-30T06:13:25.622Z,106.20
2022-07-30T06:15:52.445Z,102.27
2022-07-30T06:18:19.202Z,99.20
2022-07-30T06:20:51.790Z,99.50
2022-07-30T06:23:18.887Z,104.37
2022-07-30T06:25:45.569Z,99.47
2022-07-30T06:28:35.243Z,99.97
2022-07-30T06:30:59.261Z,98.87
2022-07-30T06:33:26.043Z,97.47
2022-07-30T06:35:52.742Z,95.37
2022-07-30T06:38:19.446Z,93.70
2022-07-30T06:40:46.101Z,94.00
2022-07-30T06:43:13.001Z,92.97
2022-07-30T06:45:40.065Z,90.07
2022-07-30T06:48:06.906Z,91.67
2022-07-30T06:50:35.425Z,91.93
2022-07-30T06:53:02.089Z,92.20
2022-07-30T06:55:28.756Z,87.17
2022-07-30T06:57:55.436Z,87.70
2022-07-30T07:00:22.105Z,87.30
2022-07-30T07:02:48.764Z,85.47
2022-07-30T07:05:15.570Z,85.27
2022-07-30T07:07:49.098Z,84.20
2022-07-30T07:10:24.896Z,92.37
2022-07-30T07:12:51.617Z,83.00
2022-07-30T07:15:18.326Z,86.20
2022-07-30T07:17:45.067Z,84.90
2022-07-30T07:20:11.850Z,89.83
2022-07-30T07:22:38.691Z,87.97
2022-07-30T07:25:06.034Z,83.07
2022-07-30T07:27:32.842Z,87.83
2022-07-30T07:30:04.841Z,82.87
2022-07-30T07:32:33.527Z,85.43
2022-07-30T07:35:00.218Z,84.57
2022-07-30T07:37:27.110Z,85.63
2022-07-30T07:39:53.896Z,97.60
2022-07-30T07:42:20.665Z,87.27
2022-07-30T07:44:47.359Z,86.93
2022-07-30T07:47:14.207Z,89.40
2022-07-30T07:49:40.940Z,93.93
2022-07-30T07:52:07.630Z,92.80
2022-07-30T07:54:34.324Z,92.17
2022-07-30T07:57:03.193Z,90.63
2022-07-30T07:59:40.188Z,97.00
2022-07-30T08:02:08.392Z,99.90
2022-07-30T08:04:35.664Z,90.40
2022-07-30T08:07:03.381Z,94.77
2022-07-30T08:09:42.028Z,90.37
2022-07-30T08:12:12.185Z,90.20
2022-07-30T08:14:39.088Z,95.67
2022-07-30T08:17:06.367Z,93.70
2022-07-30T08:19:33.989Z,91.20
2022-07-30T08:22:00.712Z,91.37
2022-07-30T08:24:27.374Z,90.43
2022-07-30T08:26:54.124Z,90.40
2022-07-30T08:29:21.107Z,90.63
2022-07-30T08:31:47.787Z,92.47
2022-07-30T08:34:14.647Z,91.67
2022-07-30T08:36:41.810Z,92.60
2022-07-30T08:39:08.883Z,93.10
2022-07-30T08:41:38.829Z,93.77
2022-07-30T08:44:12.674Z,92.47
2022-07-30T08:46:47.374Z,89.07
2022-07-30T08:49:14.842Z,91.10
2022-07-30T08:51:42.093Z,88.30
2022-07-30T08:54:09.430Z,89.67
2022-07-30T08:56:36.938Z,94.03
2022-07-30T08:59:04.005Z,89.37
2022-07-30T09:01:30.730Z,88.07
2022-07-30T09:03:57.600Z,90.50
2022-07-30T09:06:24.449Z,96.53
2022-07-30T09:08:51.114Z,89.43
2022-07-30T09:11:17.786Z,87.33
2022-07-30T09:13:44.746Z,89.30
2022-07-30T09:16:24.902Z,90.87
2022-07-30T09:18:53.110Z,84.17
2022-07-30T09:21:28.537Z,86.80
2022-07-30T09:24:01.107Z,86.10
2022-07-30T09:26:29.421Z,90.60
2022-07-30T09:29:16.804Z,86.40
2022-07-30T09:32:07.323Z,82.50
2022-07-30T09:34:39.362Z,83.07
2022-07-30T09:37:18.420Z,87.60
2022-07-30T09:39:59.493Z,87.80
2022-07-30T09:42:28.862Z,82.87
2022-07-30T09:45:13.813Z,83.57
2022-07-30T09:47:45.115Z,87.07
2022-07-30T09:53:09.243Z,84.20
2022-07-30T09:58:27.448Z,83.20
2022-07-30T10:00:59.614Z,82.60
2022-07-30T10:03:33.965Z,84.30
2022-07-30T10:06:05.239Z,83.83
2022-07-30T10:08:39.713Z,81.87
2022-07-30T10:11:09.586Z,82.47
2022-07-30T10:13:39.271Z,82.80
2022-07-30T10:16:07.181Z,79.57
2022-07-30T10:18:35.818Z,82.30
2022-07-30T10:21:05.314Z,81.50
2022-07-30T10:23:35.514Z,80.57
2022-07-30T10:26:04.121Z,81.83
2022-07-30T10:28:34.627Z,81.20
2022-07-30T10:31:46.337Z,84.17
2022-07-30T10:33:52.658Z,79.90
2022-07-30T10:36:21.905Z,80.30
2022-07-30T10:38:52.650Z,79.87
2022-07-30T10:41:42.523Z,79.67
2022-07-30T10:44:26.397Z,82.27
2022-07-30T10:47:09.276Z,80.20
2022-07-30T10:49:41.122Z,78.20
2022-07-30T10:52:09.855Z,79.60
2022-07-30T10:54:39.483Z,81.10
2022-07-30T10:57:32.234Z,78.97
2022-07-30T11:00:00.042Z,78.87
2022-07-30T11:02:29.328Z,78.07
2022-07-30T11:05:44.066Z,78.87
2022-07-30T11:08:31.924Z,78.30
2022-07-30T11:11:21.115Z,76.97
2022-07-30T11:14:07.873Z,80.87
2022-07-30T11:16:34.791Z,77.90
2022-07-30T11:19:55.160Z,80.37
2022-07-30T11:22:27.053Z,78.37
2022-07-30T11:24:54.901Z,77.90
2022-07-30T11:27:46.466Z,78.17
2022-07-30T11:30:18.775Z,78.70
2022-07-30T11:33:03.905Z,79.60
2022-07-30T11:35:32.233Z,78.40
2022-07-30T11:38:15.689Z,81.83
2022-07-30T11:40:45.852Z,78.60
2022-07-30T11:43:35.578Z,78.90
2022-07-30T11:46:28.637Z,77.93
2022-07-30T11:48:59.850Z,78.30
2022-07-30T11:51:27.218Z,77.60
2022-07-30T11:54:04.073Z,78.47
2022-07-30T11:56:31.539Z,77.27
2022-07-30T11:59:03.673Z,78.90
2022-07-30T12:01:31.411Z,77.40
2022-07-30T12:03:58.082Z,79.60
2022-07-30T12:06:24.833Z,77.00
2022-07-30T12:08:58.226Z,77.60
2022-07-30T12:11:31.517Z,77.30
2022-07-30T12:14:00.133Z,78.10
2022-07-30T12:16:28.046Z,80.33
2022-07-30T12:18:55.346Z,78.17
2022-07-30T12:21:24.876Z,79.50
2022-07-30T12:23:55.680Z,78.60
2022-07-30T12:26:26.894Z,77.90
2022-07-30T12:28:55.086Z,81.47
2022-07-30T12:31:21.861Z,78.97
2022-07-30T12:33:48.563Z,81.63
2022-07-30T12:36:26.442Z,76.70
2022-07-30T12:38:54.536Z,77.57
2022-07-30T12:41:22.467Z,78.30
2022-07-30T12:43:56.258Z,77.50
2022-07-30T12:46:26.623Z,77.93
2022-07-30T12:48:57.895Z,77.70
2022-07-30T12:51:28.945Z,77.00
2022-07-30T12:53:57.128Z,78.33
2022-07-30T12:56:28.873Z,77.50
2022-07-30T12:58:58.170Z,76.47
2022-07-30T13:01:47.164Z,76.60
2022-07-30T13:04:14.485Z,78.00
2022-07-30T13:06:42.029Z,75.97
2022-07-30T13:09:21.603Z,76.90
2022-07-30T13:11:49.718Z,77.03
2022-07-30T13:14:17.354Z,76.90
2022-07-30T13:16:44.302Z,77.17
2022-07-30T13:19:12.091Z,79.20
2022-07-30T13:21:40.387Z,77.70
2022-07-30T13:24:17.935Z,77.77
2022-07-30T13:26:45.294Z,78.03
2022-07-30T13:29:13.450Z,78.47
2022-07-30T13:31:42.432Z,77.07
2022-07-30T13:34:10.751Z,78.10
2022-07-30T13:36:37.546Z,77.53
2022-07-30T13:39:04.357Z,77.30
2022-07-30T13:41:31.256Z,77.63
2022-07-30T13:43:57.947Z,78.73
2022-07-30T13:46:24.710Z,77.17
2022-07-30T13:48:51.516Z,78.10
2022-07-30T13:51:18.678Z,77.80
2022-07-30T13:53:45.502Z,79.60
2022-07-30T13:56:12.469Z,83.50
2022-07-30T13:58:40.153Z,79.67
2022-07-30T14:01:07.376Z,80.50
2022-07-30T14:03:35.239Z,77.67
2022-07-30T14:06:10.801Z,77.60
2022-07-30T14:08:39.967Z,77.77
2022-07-30T14:11:06.645Z,78.70
2022-07-30T14:13:33.350Z,80.23
2022-07-30T14:16:00.027Z,77.80
2022-07-30T14:18:26.785Z,78.87
2022-07-30T14:20:53.735Z,78.83
2022-07-30T14:23:20.689Z,80.47
2022-07-30T14:25:47.544Z,77.50
2022-07-30T14:28:14.998Z,77.90
2022-07-30T14:30:42.359Z,78.37
2022-07-30T14:33:09.428Z,78.13
2022-07-30T14:35:36.257Z,78.53
2022-07-30T14:38:03.538Z,80.40
2022-07-30T14:40:30.360Z,78.40
2022-07-30T14:42:57.926Z,79.60
2022-07-30T14:45:25.514Z,78.20
2022-07-30T14:47:52.349Z,78.43
2022-07-30T14:50:19.204Z,78.70
2022-07-30T14:52:47.468Z,78.77
2022-07-30T14:55:14.342Z,78.50
2022-07-30T14:57:41.082Z,78.37
2022-07-30T15:00:10.865Z,79.20
2022-07-30T15:02:38.109Z,80.30
2022-07-30T15:05:05.186Z,78.30
2022-07-30T15:07:34.546Z,79.60
2022-07-30T15:10:02.491Z,87.00
2022-07-30T15:12:29.262Z,78.20
2022-07-30T15:14:55.971Z,79.47
2022-07-30T15:17:22.663Z,80.30
2022-07-30T15:19:51.197Z,81.00
2022-07-30T15:22:19.639Z,80.10
2022-07-30T15:24:46.492Z,81.17
2022-07-30T15:27:13.168Z,80.57
2022-07-30T15:29:39.896Z,79.97
2022-07-30T15:32:07.198Z,80.30
2022-07-30T15:34:34.511Z,80.37
2022-07-30T15:37:02.602Z,82.93
2022-07-30T15:39:32.212Z,80.67
2022-07-30T15:42:00.658Z,81.07
2022-07-30T15:44:27.721Z,82.33
2022-07-30T15:46:54.938Z,81.67
2022-07-30T15:49:22.010Z,80.73
2022-07-30T15:51:49.040Z,79.67
2022-07-30T15:54:22.844Z,81.20
2022-07-30T15:56:51.230Z,83.60
2022-07-30T15:59:18.286Z,81.87
2022-07-30T16:01:45.451Z,79.77
2022-07-30T16:04:18.922Z,80.47
2022-07-30T16:06:47.830Z,80.40
2022-07-30T16:09:15.446Z,80.50
2022-07-30T16:11:43.013Z,80.27
2022-07-30T16:14:10.375Z,80.20
2022-07-30T16:16:37.430Z,80.60
2022-07-30T16:19:04.422Z,80.97
2022-07-30T16:21:31.311Z,81.10
2022-07-30T16:23:58.079Z,80.30
2022-07-30T16:26:24.754Z,81.00
2022-07-30T16:28:51.419Z,80.67
2022-07-30T16:31:18.263Z,81.13
2022-07-30T16:33:45.011Z,80.50
2022-07-30T16:36:11.797Z,80.47
2022-07-30T16:38:38.486Z,82.67
2022-07-30T16:41:05.278Z,80.20
2022-07-30T16:43:33.081Z,80.67
2022-07-30T16:46:00.131Z,80.80
2022-07-30T16:48:27.106Z,81.00
2022-07-30T16:50:54.707Z,80.37
2022-07-30T16:53:21.468Z,81.37
2022-07-30T16:55:48.234Z,80.27
2022-07-30T16:58:14.935Z,82.43
2022-07-30T17:00:41.749Z,80.67
2022-07-30T17:03:08.674Z,82.10
2022-07-30T17:05:35.767Z,82.20
2022-07-30T17:08:05.459Z,83.13
2022-07-30T17:10:32.239Z,82.23
2022-07-30T17:12:58.901Z,82.50
2022-07-30T17:15:32.852Z,83.20
2022-07-30T17:18:00.927Z,87.23
2022-07-30T17:20:29.046Z,82.40
2022-07-30T17:22:56.193Z,82.80
2022-07-30T17:25:27.479Z,83.30
2022-07-30T17:27:58.557Z,84.37
2022-07-30T17:30:27.473Z,84.03
2022-07-30T17:32:54.235Z,82.70
2022-07-30T17:35:21.076Z,84.50
2022-07-30T17:37:47.980Z,83.07
2022-07-30T17:40:28.678Z,83.57
2022-07-30T17:43:03.601Z,83.80
2022-07-30T17:45:32.531Z,84.17
2022-07-30T17:48:01.327Z,85.83
2022-07-30T17:50:28.753Z,85.27
2022-07-30T17:52:55.427Z,84.47
2022-07-30T17:55:22.279Z,83.77
2022-07-30T17:57:48.990Z,83.97
2022-07-30T18:00:16.179Z,82.90
2022-07-30T18:02:42.895Z,84.10
2022-07-30T18:05:10.631Z,87.83
2022-07-30T18:07:37.571Z,83.43
2022-07-30T18:10:04.817Z,85.80
2022-07-30T18:12:31.574Z,84.00
2022-07-30T18:14:59.234Z,85.37
2022-07-30T18:17:25.983Z,85.60
2022-07-30T18:19:53.469Z,85.27
2022-07-30T18:22:29.012Z,85.67
2022-07-30T18:24:56.524Z,84.57
2022-07-30T18:27:23.726Z,92.70
2022-07-30T18:29:50.388Z,86.53
2022-07-30T18:32:17.098Z,89.40
2022-07-30T18:34:43.955Z,86.20
2022-07-30T18:37:10.620Z,85.20
2022-07-30T18:39:37.289Z,89.60
2022-07-30T18:42:04.538Z,88.87
2022-07-30T18:44:31.600Z,87.10
2022-07-30T18:46:58.269Z,84.97
2022-07-30T18:49:40.384Z,88.37
2022-07-30T18:52:07.595Z,86.27
2022-07-30T18:54:35.523Z,86.10
2022-07-30T18:57:02.417Z,87.17
2022-07-30T18:59:29.463Z,86.07
2022-07-30T19:01:56.156Z,86.90
2022-07-30T19:04:22.862Z,86.10
2022-07-30T19:06:49.613Z,87.47
2022-07-30T19:09:17.949Z,86.07
2022-07-30T19:11:46.046Z,86.17
2022-07-30T19:14:14.010Z,87.20
2022-07-30T19:16:41.920Z,91.13
2022-07-30T19:19:08.849Z,87.47
2022-07-30T19:21:35.748Z,87.30
2022-07-30T19:24:02.580Z,86.23
2022-07-30T19:26:29.310Z,88.40
2022-07-30T19:28:56.048Z,87.13
2022-07-30T19:31:22.872Z,87.27
2022-07-30T19:33:49.624Z,87.20
2022-07-30T19:36:20.559Z,87.23
2022-07-30T19:38:48.812Z,88.70
2022-07-30T19:41:16.274Z,87.07
2022-07-30T19:43:43.021Z,86.87
2022-07-30T19:46:24.280Z,87.70
2022-07-30T19:48:51.041Z,88.00
2022-07-30T19:51:20.741Z,89.80
2022-07-30T19:54:04.662Z,87.10
2022-07-30T19:56:37.698Z,87.07
2022-07-30T19:59:14.717Z,88.57
2022-07-30T20:01:42.840Z,89.10
2022-07-30T20:04:11.112Z,87.60
2022-07-30T20:06:39.888Z,87.77
2022-07-30T20:09:15.082Z,88.60
2022-07-30T20:11:43.620Z,89.90
2022-07-30T20:14:10.490Z,91.50
2022-07-30T20:16:37.434Z,88.80
2022-07-30T20:19:04.722Z,89.40
2022-07-30T20:21:57.088Z,88.17
2022-07-30T20:24:20.207Z,91.80
2022-07-30T20:26:47.689Z,88.97
2022-07-30T20:29:19.458Z,89.33
2022-07-30T20:31:49.976Z,90.70
2022-07-30T20:34:20.614Z,89.13
2022-07-30T20:36:50.757Z,87.50
2022-07-30T20:39:18.638Z,89.40
2022-07-30T20:41:46.630Z,87.97
2022-07-30T20:44:23.025Z,88.10
2022-07-30T20:46:50.735Z,88.27
2022-07-30T20:49:23.645Z,88.40
2022-07-30T20:51:55.700Z,89.17
2022-07-30T20:54:22.435Z,88.67
2022-07-30T20:56:51.066Z,91.70
2022-07-30T20:59:18.220Z,91.77
2022-07-30T21:01:50.455Z,87.50
2022-07-30T21:04:25.552Z,90.30
2022-07-30T21:06:52.971Z,90.20
2022-07-30T21:09:20.302Z,90.60
2022-07-30T21:11:50.604Z,90.00
2022-07-30T21:14:18.693Z,95.50
2022-07-30T21:16:46.651Z,91.40
2022-07-30T21:19:17.534Z,89.40
2022-07-30T21:21:48.272Z,91.77
2022-07-30T21:24:18.690Z,88.50
2022-07-30T21:26:48.778Z,91.07
2022-07-30T21:29:16.759Z,93.07
2022-07-30T21:32:08.739Z,92.90
2022-07-30T21:34:35.915Z,92.87
2022-07-30T21:37:07.382Z,101.43
2022-07-30T21:39:39.952Z,91.67
2022-07-30T21:42:09.796Z,90.80
2022-07-30T21:44:38.083Z,93.07
2022-07-30T21:47:09.976Z,89.60
2022-07-30T21:49:37.631Z,90.90
2022-07-30T21:52:05.120Z,95.07
2022-07-30T21:54:44.996Z,90.97
2022-07-30T21:57:12.519Z,91.77
2022-07-30T21:59:40.455Z,93.60
2022-07-30T22:02:15.977Z,94.60
2022-07-30T22:04:47.620Z,103.90
2022-07-30T22:07:17.590Z,101.60
2022-07-30T22:09:45.122Z,101.07
2022-07-30T22:14:59.188Z,102.57
2022-07-30T22:17:37.233Z,98.57
2022-07-30T22:20:14.682Z,94.17
2022-07-30T22:22:41.353Z,93.70
2022-07-30T22:25:09.849Z,93.57
2022-07-30T22:27:56.426Z,91.97
2022-07-30T22:30:27.032Z,91.57
2022-07-30T22:32:54.920Z,91.63
2022-07-30T22:35:32.194Z,90.47
2022-07-30T22:38:01.497Z,91.00
2022-07-30T22:40:28.188Z,92.07
2022-07-30T22:42:54.867Z,90.97
2022-07-30T22:45:35.969Z,94.10
2022-07-30T22:48:10.734Z,93.50
2022-07-30T22:50:40.294Z,96.43
2022-07-30T22:54:03.680Z,100.73
2022-07-30T22:55:54.946Z,94.37
2022-07-30T22:58:22.168Z,92.37
2022-07-30T23:00:53.130Z,91.57
2022-07-30T23:03:20.121Z,96.90
2022-07-30T23:05:55.913Z,92.40
2022-07-30T23:08:29.596Z,92.80
2022-07-30T23:10:57.646Z,91.53
2022-07-30T23:12:31.543Z,101.20
2022-07-30T23:13:24.298Z,92.87
2022-07-30T23:15:50.989Z,93.17
2022-07-30T23:18:17.647Z,93.20
2022-07-30T23:20:44.361Z,92.50
2022-07-30T23:23:11.523Z,97.27
2022-07-30T23:25:39.368Z,91.60
2022-07-30T23:28:06.521Z,91.03
2022-07-30T23:30:34.431Z,90.07
2022-07-30T23:33:01.642Z,92.43
2022-07-30T23:35:28.308Z,93.37
2022-07-30T23:37:54.984Z,92.27
2022-07-30T23:40:22.414Z,92.10
2022-07-30T23:42:50.828Z,92.17
2022-07-30T23:45:18.408Z,90.80
2022-07-30T23:48:00.487Z,92.27
2022-07-30T23:50:31.468Z,99.00
2022-07-30T23:52:58.551Z,92.30
2022-07-30T23:55:25.263Z,90.73
2022-07-30T23:57:51.936Z,89.73
